sensor_id;sensor_type;location;lat;lon;timestamp;temperature;humidity
44190;DHT22;29856;52.144;5.430;2022-11-30T00:00:25;10.60;99.90
44190;DHT22;29856;52.144;5.430;2022-11-30T00:02:51;10.60;99.90
44190;DHT22;29856;52.144;5.430;2022-11-30T00:05:19;10.70;99.90
44190;DHT22;29856;52.144;5.430;2022-11-30T00:07:45;10.70;99.90
44190;DHT22;29856;52.144;5.430;2022-11-30T00:10:11;10.70;99.90
44190;DHT22;29856;52.144;5.430;2022-11-30T00:12:39;10.80;99.90
44190;DHT22;29856;52.144;5.430;2022-11-30T00:15:05;10.80;99.90
44190;DHT22;29856;52.144;5.430;2022-11-30T00:17:31;10.70;99.90
44190;DHT22;29856;52.144;5.430;2022-11-30T00:19:56;10.60;99.90
44190;DHT22;29856;52.144;5.430;2022-11-30T00:22:25;10.70;99.90
44190;DHT22;29856;52.144;5.430;2022-11-30T00:24:50;10.60;99.90
44190;DHT22;29856;52.144;5.430;2022-11-30T00:27:16;10.50;99.90
44190;DHT22;29856;52.144;5.430;2022-11-30T00:29:41;10.50;99.90
44190;DHT22;29856;52.144;5.430;2022-11-30T00:32:07;10.60;99.90
44190;DHT22;29856;52.144;5.430;2022-11-30T00:34:32;10.40;99.90
44190;DHT22;29856;52.144;5.430;2022-11-30T00:36:58;10.50;99.90
44190;DHT22;29856;52.144;5.430;2022-11-30T00:39:23;10.40;99.90
44190;DHT22;29856;52.144;5.430;2022-11-30T00:41:49;10.50;99.90
44190;DHT22;29856;52.144;5.430;2022-11-30T00:44:14;10.40;99.90
44190;DHT22;29856;52.144;5.430;2022-11-30T00:46:40;10.30;99.90
44190;DHT22;29856;52.144;5.430;2022-11-30T00:49:05;10.50;99.90
44190;DHT22;29856;52.144;5.430;2022-11-30T00:51:31;10.50;99.90
44190;DHT22;29856;52.144;5.430;2022-11-30T00:53:56;10.50;99.90
44190;DHT22;29856;52.144;5.430;2022-11-30T00:58:57;10.40;99.90
44190;DHT22;29856;52.144;5.430;2022-11-30T01:01:23;10.20;99.90
44190;DHT22;29856;52.144;5.430;2022-11-30T01:03:48;10.20;99.90
44190;DHT22;29856;52.144;5.430;2022-11-30T01:06:14;10.20;99.90
44190;DHT22;29856;52.144;5.430;2022-11-30T01:08:39;10.30;99.90
44190;DHT22;29856;52.144;5.430;2022-11-30T01:11:26;10.30;99.90
44190;DHT22;29856;52.144;5.430;2022-11-30T01:13:53;10.30;99.90
44190;DHT22;29856;52.144;5.430;2022-11-30T01:16:22;10.20;99.90
44190;DHT22;29856;52.144;5.430;2022-11-30T01:18:48;10.10;99.90
44190;DHT22;29856;52.144;5.430;2022-11-30T01:21:18;10.20;99.90
44190;DHT22;29856;52.144;5.430;2022-11-30T01:23:54;10.30;99.90
44190;DHT22;29856;52.144;5.430;2022-11-30T01:26:21;10.30;99.90
44190;DHT22;29856;52.144;5.430;2022-11-30T01:28:51;10.30;99.90
44190;DHT22;29856;52.144;5.430;2022-11-30T01:31:17;10.30;99.90
44190;DHT22;29856;52.144;5.430;2022-11-30T01:33:48;10.30;99.90
44190;DHT22;29856;52.144;5.430;2022-11-30T01:36:16;10.30;99.90
44190;DHT22;29856;52.144;5.430;2022-11-30T01:38:47;10.20;99.90
44190;DHT22;29856;52.144;5.430;2022-11-30T01:41:16;10.20;99.90
44190;DHT22;29856;52.144;5.430;2022-11-30T01:46:47;10.40;99.90
44190;DHT22;29856;52.144;5.430;2022-11-30T01:52:03;10.30;99.90
44190;DHT22;29856;52.144;5.430;2022-11-30T01:54:58;10.40;99.90
44190;DHT22;29856;52.144;5.430;2022-11-30T01:57:39;10.50;99.90
44190;DHT22;29856;52.144;5.430;2022-11-30T02:00:08;10.40;99.90
44190;DHT22;29856;52.144;5.430;2022-11-30T02:02:49;10.50;99.90
44190;DHT22;29856;52.144;5.430;2022-11-30T02:05:17;10.60;99.90
44190;DHT22;29856;52.144;5.430;2022-11-30T02:07:43;10.60;99.90
44190;DHT22;29856;52.144;5.430;2022-11-30T02:10:13;10.60;99.90
44190;DHT22;29856;52.144;5.430;2022-11-30T02:13:03;10.40;99.90
44190;DHT22;29856;52.144;5.430;2022-11-30T02:15:40;10.50;99.90
44190;DHT22;29856;52.144;5.430;2022-11-30T02:18:14;10.50;99.90
44190;DHT22;29856;52.144;5.430;2022-11-30T02:20:54;10.50;99.90
44190;DHT22;29856;52.144;5.430;2022-11-30T02:30:04;10.50;99.90
44190;DHT22;29856;52.144;5.430;2022-11-30T02:32:38;10.50;99.90
44190;DHT22;29856;52.144;5.430;2022-11-30T02:35:08;10.60;99.90
44190;DHT22;29856;52.144;5.430;2022-11-30T02:37:35;10.70;99.90
44190;DHT22;29856;52.144;5.430;2022-11-30T02:40:09;10.80;99.90
44190;DHT22;29856;52.144;5.430;2022-11-30T02:42:35;10.80;99.90
44190;DHT22;29856;52.144;5.430;2022-11-30T02:45:01;10.90;99.90
44190;DHT22;29856;52.144;5.430;2022-11-30T02:47:33;10.90;99.90
44190;DHT22;29856;52.144;5.430;2022-11-30T02:50:10;10.90;99.90
44190;DHT22;29856;52.144;5.430;2022-11-30T02:52:38;10.80;99.90
44190;DHT22;29856;52.144;5.430;2022-11-30T02:55:06;10.90;99.90
44190;DHT22;29856;52.144;5.430;2022-11-30T02:57:33;10.90;99.90
44190;DHT22;29856;52.144;5.430;2022-11-30T02:59:59;10.90;99.90
44190;DHT22;29856;52.144;5.430;2022-11-30T03:02:27;10.80;99.90
44190;DHT22;29856;52.144;5.430;2022-11-30T03:04:52;10.50;99.90
44190;DHT22;29856;52.144;5.430;2022-11-30T03:07:18;10.60;99.90
44190;DHT22;29856;52.144;5.430;2022-11-30T03:09:43;10.60;99.90
44190;DHT22;29856;52.144;5.430;2022-11-30T03:12:09;10.70;99.90
44190;DHT22;29856;52.144;5.430;2022-11-30T03:14:34;10.60;99.90
44190;DHT22;29856;52.144;5.430;2022-11-30T03:17:00;10.40;99.90
44190;DHT22;29856;52.144;5.430;2022-11-30T03:19:25;10.60;99.90
44190;DHT22;29856;52.144;5.430;2022-11-30T03:21:51;10.70;99.90
44190;DHT22;29856;52.144;5.430;2022-11-30T03:24:16;10.90;99.90
44190;DHT22;29856;52.144;5.430;2022-11-30T03:26:42;10.80;99.90
44190;DHT22;29856;52.144;5.430;2022-11-30T03:29:07;10.80;99.90
44190;DHT22;29856;52.144;5.430;2022-11-30T03:31:33;10.90;99.90
44190;DHT22;29856;52.144;5.430;2022-11-30T03:33:58;10.80;99.90
44190;DHT22;29856;52.144;5.430;2022-11-30T03:36:24;10.80;99.90
44190;DHT22;29856;52.144;5.430;2022-11-30T03:38:49;10.80;99.90
44190;DHT22;29856;52.144;5.430;2022-11-30T03:41:16;10.60;99.90
44190;DHT22;29856;52.144;5.430;2022-11-30T03:43:42;10.60;99.90
44190;DHT22;29856;52.144;5.430;2022-11-30T03:46:08;10.70;99.90
44190;DHT22;29856;52.144;5.430;2022-11-30T03:48:33;10.80;99.90
44190;DHT22;29856;52.144;5.430;2022-11-30T03:50:59;10.80;99.90
44190;DHT22;29856;52.144;5.430;2022-11-30T03:53:25;10.80;99.90
44190;DHT22;29856;52.144;5.430;2022-11-30T03:55:52;10.70;99.90
44190;DHT22;29856;52.144;5.430;2022-11-30T03:58:17;10.80;99.90
44190;DHT22;29856;52.144;5.430;2022-11-30T04:00:43;10.80;99.90
44190;DHT22;29856;52.144;5.430;2022-11-30T04:03:08;10.90;99.90
44190;DHT22;29856;52.144;5.430;2022-11-30T04:05:34;11.00;99.90
44190;DHT22;29856;52.144;5.430;2022-11-30T04:07:59;11.00;99.90
44190;DHT22;29856;52.144;5.430;2022-11-30T04:10:25;11.00;99.90
44190;DHT22;29856;52.144;5.430;2022-11-30T04:12:50;11.10;99.90
44190;DHT22;29856;52.144;5.430;2022-11-30T04:15:16;11.10;99.90
44190;DHT22;29856;52.144;5.430;2022-11-30T04:17:41;11.00;99.90
44190;DHT22;29856;52.144;5.430;2022-11-30T04:20:07;11.00;99.90
44190;DHT22;29856;52.144;5.430;2022-11-30T04:22:33;11.10;99.90
44190;DHT22;29856;52.144;5.430;2022-11-30T04:24:58;11.10;99.90
44190;DHT22;29856;52.144;5.430;2022-11-30T04:27:24;11.20;99.90
44190;DHT22;29856;52.144;5.430;2022-11-30T04:29:49;11.20;99.90
44190;DHT22;29856;52.144;5.430;2022-11-30T04:32:15;11.30;99.90
44190;DHT22;29856;52.144;5.430;2022-11-30T04:34:42;11.20;99.90
44190;DHT22;29856;52.144;5.430;2022-11-30T04:37:07;11.20;99.90
44190;DHT22;29856;52.144;5.430;2022-11-30T04:39:33;11.30;99.90
44190;DHT22;29856;52.144;5.430;2022-11-30T04:41:59;11.30;99.90
44190;DHT22;29856;52.144;5.430;2022-11-30T04:44:24;11.20;99.90
44190;DHT22;29856;52.144;5.430;2022-11-30T04:46:50;11.00;99.90
44190;DHT22;29856;52.144;5.430;2022-11-30T04:49:15;10.90;99.90
44190;DHT22;29856;52.144;5.430;2022-11-30T04:51:41;11.00;99.90
44190;DHT22;29856;52.144;5.430;2022-11-30T04:54:06;11.00;99.90
44190;DHT22;29856;52.144;5.430;2022-11-30T04:56:33;10.90;99.90
44190;DHT22;29856;52.144;5.430;2022-11-30T04:59:00;10.90;99.90
44190;DHT22;29856;52.144;5.430;2022-11-30T05:01:25;10.90;99.90
44190;DHT22;29856;52.144;5.430;2022-11-30T05:03:51;10.70;99.90
44190;DHT22;29856;52.144;5.430;2022-11-30T05:06:16;10.70;99.90
44190;DHT22;29856;52.144;5.430;2022-11-30T05:08:42;10.60;99.90
44190;DHT22;29856;52.144;5.430;2022-11-30T05:11:07;10.80;99.90
44190;DHT22;29856;52.144;5.430;2022-11-30T05:13:33;10.80;99.90
44190;DHT22;29856;52.144;5.430;2022-11-30T05:15:58;10.80;99.90
44190;DHT22;29856;52.144;5.430;2022-11-30T05:18:24;10.60;99.90
44190;DHT22;29856;52.144;5.430;2022-11-30T05:20:50;10.60;99.90
44190;DHT22;29856;52.144;5.430;2022-11-30T05:23:16;10.60;99.90
44190;DHT22;29856;52.144;5.430;2022-11-30T05:25:42;10.60;99.90
44190;DHT22;29856;52.144;5.430;2022-11-30T05:28:08;10.60;99.90
44190;DHT22;29856;52.144;5.430;2022-11-30T05:30:34;10.60;99.90
44190;DHT22;29856;52.144;5.430;2022-11-30T05:32:59;10.50;99.90
44190;DHT22;29856;52.144;5.430;2022-11-30T05:35:25;10.50;99.90
44190;DHT22;29856;52.144;5.430;2022-11-30T05:37:50;10.60;99.90
44190;DHT22;29856;52.144;5.430;2022-11-30T05:40:16;10.60;99.90
44190;DHT22;29856;52.144;5.430;2022-11-30T05:42:41;10.60;99.90
44190;DHT22;29856;52.144;5.430;2022-11-30T05:45:07;10.70;99.90
44190;DHT22;29856;52.144;5.430;2022-11-30T05:47:33;10.60;99.90
44190;DHT22;29856;52.144;5.430;2022-11-30T05:49:58;10.60;99.90
44190;DHT22;29856;52.144;5.430;2022-11-30T05:52:24;10.50;99.90
44190;DHT22;29856;52.144;5.430;2022-11-30T05:54:49;10.50;99.90
44190;DHT22;29856;52.144;5.430;2022-11-30T05:57:14;10.30;99.90
44190;DHT22;29856;52.144;5.430;2022-11-30T05:59:40;10.40;99.90
44190;DHT22;29856;52.144;5.430;2022-11-30T06:02:06;10.60;99.90
44190;DHT22;29856;52.144;5.430;2022-11-30T06:04:32;10.60;99.90
44190;DHT22;29856;52.144;5.430;2022-11-30T06:06:58;10.60;99.90
44190;DHT22;29856;52.144;5.430;2022-11-30T06:09:23;10.60;99.90
44190;DHT22;29856;52.144;5.430;2022-11-30T06:11:49;10.60;99.90
44190;DHT22;29856;52.144;5.430;2022-11-30T06:14:15;10.40;99.90
44190;DHT22;29856;52.144;5.430;2022-11-30T06:16:40;10.30;99.90
44190;DHT22;29856;52.144;5.430;2022-11-30T06:19:06;10.30;99.90
44190;DHT22;29856;52.144;5.430;2022-11-30T06:21:32;10.20;99.90
44190;DHT22;29856;52.144;5.430;2022-11-30T06:23:57;10.10;99.90
44190;DHT22;29856;52.144;5.430;2022-11-30T06:26:23;10.10;99.90
44190;DHT22;29856;52.144;5.430;2022-11-30T06:28:48;10.00;99.90
44190;DHT22;29856;52.144;5.430;2022-11-30T06:31:14;9.90;99.90
44190;DHT22;29856;52.144;5.430;2022-11-30T06:33:39;9.90;99.90
44190;DHT22;29856;52.144;5.430;2022-11-30T06:36:05;9.80;99.90
44190;DHT22;29856;52.144;5.430;2022-11-30T06:38:31;9.80;99.90
44190;DHT22;29856;52.144;5.430;2022-11-30T06:41:07;9.80;99.90
44190;DHT22;29856;52.144;5.430;2022-11-30T06:43:34;9.80;99.90
44190;DHT22;29856;52.144;5.430;2022-11-30T06:46:02;9.70;99.90
44190;DHT22;29856;52.144;5.430;2022-11-30T06:48:28;9.70;99.90
44190;DHT22;29856;52.144;5.430;2022-11-30T06:50:54;9.70;99.90
44190;DHT22;29856;52.144;5.430;2022-11-30T06:53:19;9.80;99.90
44190;DHT22;29856;52.144;5.430;2022-11-30T06:55:45;9.80;99.90
44190;DHT22;29856;52.144;5.430;2022-11-30T06:58:10;9.70;99.90
44190;DHT22;29856;52.144;5.430;2022-11-30T07:00:36;9.70;99.90
44190;DHT22;29856;52.144;5.430;2022-11-30T07:03:03;9.70;99.90
44190;DHT22;29856;52.144;5.430;2022-11-30T07:05:29;9.70;99.90
44190;DHT22;29856;52.144;5.430;2022-11-30T07:07:57;9.60;99.90
44190;DHT22;29856;52.144;5.430;2022-11-30T07:10:23;9.60;99.90
44190;DHT22;29856;52.144;5.430;2022-11-30T07:12:49;9.60;99.90
44190;DHT22;29856;52.144;5.430;2022-11-30T07:15:14;9.70;99.90
44190;DHT22;29856;52.144;5.430;2022-11-30T07:17:40;9.50;99.90
44190;DHT22;29856;52.144;5.430;2022-11-30T07:20:06;9.40;99.90
44190;DHT22;29856;52.144;5.430;2022-11-30T07:22:31;9.40;99.90
44190;DHT22;29856;52.144;5.430;2022-11-30T07:24:57;9.30;99.90
44190;DHT22;29856;52.144;5.430;2022-11-30T07:27:22;9.30;99.90
44190;DHT22;29856;52.144;5.430;2022-11-30T07:29:48;9.20;99.90
44190;DHT22;29856;52.144;5.430;2022-11-30T07:32:14;9.20;99.90
44190;DHT22;29856;52.144;5.430;2022-11-30T07:34:39;9.10;99.90
44190;DHT22;29856;52.144;5.430;2022-11-30T07:37:05;9.10;99.90
44190;DHT22;29856;52.144;5.430;2022-11-30T07:39:30;9.00;99.90
44190;DHT22;29856;52.144;5.430;2022-11-30T07:41:56;9.10;99.90
44190;DHT22;29856;52.144;5.430;2022-11-30T07:44:21;9.00;99.90
44190;DHT22;29856;52.144;5.430;2022-11-30T07:46:47;8.90;99.90
44190;DHT22;29856;52.144;5.430;2022-11-30T07:49:12;8.90;99.90
44190;DHT22;29856;52.144;5.430;2022-11-30T07:51:38;8.90;99.90
44190;DHT22;29856;52.144;5.430;2022-11-30T07:54:04;9.00;99.90
44190;DHT22;29856;52.144;5.430;2022-11-30T07:56:30;8.80;99.90
44190;DHT22;29856;52.144;5.430;2022-11-30T07:58:57;8.90;99.90
44190;DHT22;29856;52.144;5.430;2022-11-30T08:01:25;9.00;99.90
44190;DHT22;29856;52.144;5.430;2022-11-30T08:03:52;9.00;99.90
44190;DHT22;29856;52.144;5.430;2022-11-30T08:06:20;9.00;99.90
44190;DHT22;29856;52.144;5.430;2022-11-30T08:08:47;8.90;99.90
44190;DHT22;29856;52.144;5.430;2022-11-30T08:11:18;9.00;99.90
44190;DHT22;29856;52.144;5.430;2022-11-30T08:13:44;9.10;99.90
44190;DHT22;29856;52.144;5.430;2022-11-30T08:16:12;9.30;99.90
44190;DHT22;29856;52.144;5.430;2022-11-30T08:18:38;9.40;99.90
44190;DHT22;29856;52.144;5.430;2022-11-30T08:21:05;9.60;99.90
44190;DHT22;29856;52.144;5.430;2022-11-30T08:23:32;9.50;99.90
44190;DHT22;29856;52.144;5.430;2022-11-30T08:26:02;9.30;99.90
44190;DHT22;29856;52.144;5.430;2022-11-30T08:28:29;9.10;99.90
44190;DHT22;29856;52.144;5.430;2022-11-30T08:30:59;9.00;99.90
44190;DHT22;29856;52.144;5.430;2022-11-30T08:33:24;9.10;99.90
44190;DHT22;29856;52.144;5.430;2022-11-30T08:35:50;9.20;99.90
44190;DHT22;29856;52.144;5.430;2022-11-30T08:38:15;9.30;99.90
44190;DHT22;29856;52.144;5.430;2022-11-30T08:40:40;9.40;99.90
44190;DHT22;29856;52.144;5.430;2022-11-30T08:43:06;9.40;99.90
44190;DHT22;29856;52.144;5.430;2022-11-30T08:45:31;9.40;99.90
44190;DHT22;29856;52.144;5.430;2022-11-30T08:47:57;9.40;99.90
44190;DHT22;29856;52.144;5.430;2022-11-30T08:50:22;9.40;99.90
44190;DHT22;29856;52.144;5.430;2022-11-30T08:52:48;9.40;99.90
44190;DHT22;29856;52.144;5.430;2022-11-30T08:55:13;9.40;99.90
44190;DHT22;29856;52.144;5.430;2022-11-30T08:57:39;9.40;99.90
44190;DHT22;29856;52.144;5.430;2022-11-30T09:00:05;9.40;99.90
44190;DHT22;29856;52.144;5.430;2022-11-30T09:02:30;9.40;99.90
44190;DHT22;29856;52.144;5.430;2022-11-30T09:04:56;9.40;99.90
44190;DHT22;29856;52.144;5.430;2022-11-30T09:07:21;9.60;99.90
44190;DHT22;29856;52.144;5.430;2022-11-30T09:09:47;9.60;99.90
44190;DHT22;29856;52.144;5.430;2022-11-30T09:12:12;9.70;99.90
44190;DHT22;29856;52.144;5.430;2022-11-30T09:14:38;9.70;99.90
44190;DHT22;29856;52.144;5.430;2022-11-30T09:17:04;9.70;99.90
44190;DHT22;29856;52.144;5.430;2022-11-30T09:19:29;9.70;99.90
44190;DHT22;29856;52.144;5.430;2022-11-30T09:21:55;9.60;99.90
44190;DHT22;29856;52.144;5.430;2022-11-30T09:24:20;9.40;99.90
44190;DHT22;29856;52.144;5.430;2022-11-30T09:26:46;9.20;99.90
44190;DHT22;29856;52.144;5.430;2022-11-30T09:29:11;9.10;99.90
44190;DHT22;29856;52.144;5.430;2022-11-30T09:31:37;9.00;99.90
44190;DHT22;29856;52.144;5.430;2022-11-30T09:34:02;8.90;99.90
44190;DHT22;29856;52.144;5.430;2022-11-30T09:36:27;8.90;99.90
44190;DHT22;29856;52.144;5.430;2022-11-30T09:38:54;8.90;99.90
44190;DHT22;29856;52.144;5.430;2022-11-30T09:47:04;8.80;99.90
44190;DHT22;29856;52.144;5.430;2022-11-30T09:49:36;8.80;99.90
44190;DHT22;29856;52.144;5.430;2022-11-30T09:52:07;8.80;99.90
44190;DHT22;29856;52.144;5.430;2022-11-30T09:54:37;8.80;99.90
44190;DHT22;29856;52.144;5.430;2022-11-30T09:59:57;9.10;99.90
44190;DHT22;29856;52.144;5.430;2022-11-30T10:02:36;9.20;99.90
44190;DHT22;29856;52.144;5.430;2022-11-30T10:05:02;9.30;99.90
44190;DHT22;29856;52.144;5.430;2022-11-30T10:16:38;9.50;99.90
44190;DHT22;29856;52.144;5.430;2022-11-30T10:19:32;9.50;99.90
44190;DHT22;29856;52.144;5.430;2022-11-30T10:22:19;9.60;99.90
44190;DHT22;29856;52.144;5.430;2022-11-30T10:30:04;9.60;99.90
44190;DHT22;29856;52.144;5.430;2022-11-30T10:32:40;9.70;99.90
44190;DHT22;29856;52.144;5.430;2022-11-30T10:35:33;9.70;99.90
44190;DHT22;29856;52.144;5.430;2022-11-30T10:38:26;9.60;99.90
44190;DHT22;29856;52.144;5.430;2022-11-30T10:40:58;9.60;99.90
44190;DHT22;29856;52.144;5.430;2022-11-30T10:43:29;9.70;99.90
44190;DHT22;29856;52.144;5.430;2022-11-30T10:45:55;9.60;99.90
44190;DHT22;29856;52.144;5.430;2022-11-30T10:51:10;9.80;99.90
44190;DHT22;29856;52.144;5.430;2022-11-30T10:53:36;9.90;99.90
44190;DHT22;29856;52.144;5.430;2022-11-30T10:56:07;10.00;99.90
44190;DHT22;29856;52.144;5.430;2022-11-30T10:58:47;10.00;99.90
44190;DHT22;29856;52.144;5.430;2022-11-30T11:04:28;10.00;99.90
44190;DHT22;29856;52.144;5.430;2022-11-30T11:06:56;9.90;99.90
44190;DHT22;29856;52.144;5.430;2022-11-30T11:09:34;10.00;99.90
44190;DHT22;29856;52.144;5.430;2022-11-30T11:14:38;10.10;99.90
44190;DHT22;29856;52.144;5.430;2022-11-30T11:17:20;10.10;99.90
44190;DHT22;29856;52.144;5.430;2022-11-30T11:19:47;10.10;99.90
44190;DHT22;29856;52.144;5.430;2022-11-30T11:22:30;10.10;99.90
44190;DHT22;29856;52.144;5.430;2022-11-30T11:25:33;10.00;99.90
44190;DHT22;29856;52.144;5.430;2022-11-30T11:28:07;9.90;99.90
44190;DHT22;29856;52.144;5.430;2022-11-30T11:30:38;9.90;99.90
44190;DHT22;29856;52.144;5.430;2022-11-30T11:33:33;10.00;99.90
44190;DHT22;29856;52.144;5.430;2022-11-30T11:38:45;10.10;99.90
44190;DHT22;29856;52.144;5.430;2022-11-30T11:43:58;9.90;99.90
44190;DHT22;29856;52.144;5.430;2022-11-30T11:46:25;9.90;99.90
44190;DHT22;29856;52.144;5.430;2022-11-30T11:49:30;9.90;99.90
44190;DHT22;29856;52.144;5.430;2022-11-30T11:52:22;9.80;99.90
44190;DHT22;29856;52.144;5.430;2022-11-30T11:54:57;9.80;99.90
44190;DHT22;29856;52.144;5.430;2022-11-30T12:00:19;10.00;99.90
44190;DHT22;29856;52.144;5.430;2022-11-30T12:03:03;10.20;99.90
44190;DHT22;29856;52.144;5.430;2022-11-30T12:05:39;10.00;99.90
44190;DHT22;29856;52.144;5.430;2022-11-30T12:08:14;9.90;99.90
44190;DHT22;29856;52.144;5.430;2022-11-30T12:10:48;9.80;99.90
44190;DHT22;29856;52.144;5.430;2022-11-30T12:13:20;9.70;99.90
44190;DHT22;29856;52.144;5.430;2022-11-30T12:18:44;9.70;99.90
44190;DHT22;29856;52.144;5.430;2022-11-30T12:21:18;9.60;99.90
44190;DHT22;29856;52.144;5.430;2022-11-30T12:24:26;9.60;99.90
44190;DHT22;29856;52.144;5.430;2022-11-30T12:30:27;9.70;99.90
44190;DHT22;29856;52.144;5.430;2022-11-30T12:33:09;9.70;99.90
44190;DHT22;29856;52.144;5.430;2022-11-30T12:35:52;9.70;99.90
44190;DHT22;29856;52.144;5.430;2022-11-30T12:38:52;9.80;99.90
44190;DHT22;29856;52.144;5.430;2022-11-30T12:53:41;9.70;99.90
44190;DHT22;29856;52.144;5.430;2022-11-30T13:05:50;9.60;99.90
44190;DHT22;29856;52.144;5.430;2022-11-30T13:11:33;9.50;99.90
44190;DHT22;29856;52.144;5.430;2022-11-30T13:17:19;9.60;99.90
44190;DHT22;29856;52.144;5.430;2022-11-30T13:25:27;9.80;99.90
44190;DHT22;29856;52.144;5.430;2022-11-30T13:28:11;9.80;99.90
44190;DHT22;29856;52.144;5.430;2022-11-30T13:30:46;9.90;99.90
44190;DHT22;29856;52.144;5.430;2022-11-30T13:36:42;10.00;99.90
44190;DHT22;29856;52.144;5.430;2022-11-30T13:39:08;10.00;99.90
44190;DHT22;29856;52.144;5.430;2022-11-30T13:41:35;10.00;99.90
44190;DHT22;29856;52.144;5.430;2022-11-30T13:44:01;10.00;99.90
44190;DHT22;29856;52.144;5.430;2022-11-30T13:46:27;10.00;99.90
44190;DHT22;29856;52.144;5.430;2022-11-30T13:51:44;9.90;99.90
44190;DHT22;29856;52.144;5.430;2022-11-30T13:54:39;9.80;99.90
44190;DHT22;29856;52.144;5.430;2022-11-30T13:59:49;9.50;99.90
44190;DHT22;29856;52.144;5.430;2022-11-30T14:10:27;9.30;99.90
44190;DHT22;29856;52.144;5.430;2022-11-30T14:26:00;9.20;99.90
44190;DHT22;29856;52.144;5.430;2022-11-30T14:28:44;9.20;99.90
44190;DHT22;29856;52.144;5.430;2022-11-30T14:31:16;9.20;99.90
44190;DHT22;29856;52.144;5.430;2022-11-30T14:33:50;9.20;99.90
44190;DHT22;29856;52.144;5.430;2022-11-30T14:36:18;9.20;99.90
44190;DHT22;29856;52.144;5.430;2022-11-30T14:38:44;9.30;99.90
44190;DHT22;29856;52.144;5.430;2022-11-30T14:41:21;9.20;99.90
44190;DHT22;29856;52.144;5.430;2022-11-30T14:44:03;9.20;99.90
44190;DHT22;29856;52.144;5.430;2022-11-30T14:46:30;9.10;99.90
44190;DHT22;29856;52.144;5.430;2022-11-30T14:49:11;9.10;99.90
44190;DHT22;29856;52.144;5.430;2022-11-30T14:52:01;9.10;99.90
44190;DHT22;29856;52.144;5.430;2022-11-30T14:54:51;9.10;99.90
44190;DHT22;29856;52.144;5.430;2022-11-30T14:57:42;9.10;99.90
44190;DHT22;29856;52.144;5.430;2022-11-30T15:00:17;9.00;99.90
44190;DHT22;29856;52.144;5.430;2022-11-30T15:02:53;9.00;99.90
44190;DHT22;29856;52.144;5.430;2022-11-30T15:05:28;9.00;99.90
44190;DHT22;29856;52.144;5.430;2022-11-30T15:07:54;9.10;99.90
44190;DHT22;29856;52.144;5.430;2022-11-30T15:10:27;9.10;99.90
44190;DHT22;29856;52.144;5.430;2022-11-30T15:12:53;9.20;99.90
44190;DHT22;29856;52.144;5.430;2022-11-30T15:15:24;9.10;99.90
44190;DHT22;29856;52.144;5.430;2022-11-30T15:20:29;9.00;99.90
44190;DHT22;29856;52.144;5.430;2022-11-30T15:22:56;8.90;99.90
44190;DHT22;29856;52.144;5.430;2022-11-30T15:25:27;8.90;99.90
44190;DHT22;29856;52.144;5.430;2022-11-30T15:27:55;8.90;99.90
44190;DHT22;29856;52.144;5.430;2022-11-30T15:30:21;8.80;99.90
44190;DHT22;29856;52.144;5.430;2022-11-30T15:32:49;8.70;99.90
44190;DHT22;29856;52.144;5.430;2022-11-30T15:35:23;8.70;99.90
44190;DHT22;29856;52.144;5.430;2022-11-30T15:37:49;8.80;99.90
44190;DHT22;29856;52.144;5.430;2022-11-30T15:40:34;8.80;99.90
44190;DHT22;29856;52.144;5.430;2022-11-30T15:43:00;8.90;99.90
44190;DHT22;29856;52.144;5.430;2022-11-30T15:45:31;8.80;99.90
44190;DHT22;29856;52.144;5.430;2022-11-30T15:47:58;8.80;99.90
44190;DHT22;29856;52.144;5.430;2022-11-30T15:52:55;8.90;99.90
44190;DHT22;29856;52.144;5.430;2022-11-30T15:58:05;9.00;99.90
44190;DHT22;29856;52.144;5.430;2022-11-30T16:00:30;8.90;99.90
44190;DHT22;29856;52.144;5.430;2022-11-30T16:03:09;8.90;99.90
44190;DHT22;29856;52.144;5.430;2022-11-30T16:05:37;9.00;99.90
44190;DHT22;29856;52.144;5.430;2022-11-30T16:08:03;8.90;99.90
44190;DHT22;29856;52.144;5.430;2022-11-30T16:10:36;9.10;99.90
44190;DHT22;29856;52.144;5.430;2022-11-30T16:13:02;9.10;99.90
44190;DHT22;29856;52.144;5.430;2022-11-30T16:15:30;9.10;99.90
44190;DHT22;29856;52.144;5.430;2022-11-30T16:18:14;9.20;99.90
44190;DHT22;29856;52.144;5.430;2022-11-30T16:20:44;9.20;99.90
44190;DHT22;29856;52.144;5.430;2022-11-30T16:23:14;9.20;99.90
44190;DHT22;29856;52.144;5.430;2022-11-30T16:25:41;9.30;99.90
44190;DHT22;29856;52.144;5.430;2022-11-30T16:28:11;9.30;99.90
44190;DHT22;29856;52.144;5.430;2022-11-30T16:30:38;9.10;99.90
44190;DHT22;29856;52.144;5.430;2022-11-30T16:33:04;9.20;99.90
44190;DHT22;29856;52.144;5.430;2022-11-30T16:36:01;9.20;99.90
44190;DHT22;29856;52.144;5.430;2022-11-30T16:38:27;9.30;99.90
44190;DHT22;29856;52.144;5.430;2022-11-30T16:40:54;9.10;99.90
44190;DHT22;29856;52.144;5.430;2022-11-30T16:43:20;9.00;99.90
44190;DHT22;29856;52.144;5.430;2022-11-30T16:45:45;9.00;99.90
44190;DHT22;29856;52.144;5.430;2022-11-30T16:48:11;9.00;99.90
44190;DHT22;29856;52.144;5.430;2022-11-30T16:50:37;8.90;99.90
44190;DHT22;29856;52.144;5.430;2022-11-30T16:53:04;8.90;99.90
44190;DHT22;29856;52.144;5.430;2022-11-30T16:55:32;8.80;99.90
44190;DHT22;29856;52.144;5.430;2022-11-30T16:57:57;8.80;99.90
44190;DHT22;29856;52.144;5.430;2022-11-30T17:00:23;8.80;99.90
44190;DHT22;29856;52.144;5.430;2022-11-30T17:03:08;8.70;99.90
44190;DHT22;29856;52.144;5.430;2022-11-30T17:05:34;8.70;99.90
44190;DHT22;29856;52.144;5.430;2022-11-30T17:08:00;8.70;99.90
44190;DHT22;29856;52.144;5.430;2022-11-30T17:10:26;8.60;99.90
44190;DHT22;29856;52.144;5.430;2022-11-30T17:12:51;8.60;99.90
44190;DHT22;29856;52.144;5.430;2022-11-30T17:15:21;8.50;99.90
44190;DHT22;29856;52.144;5.430;2022-11-30T17:17:47;8.50;99.90
44190;DHT22;29856;52.144;5.430;2022-11-30T17:20:14;8.50;99.90
44190;DHT22;29856;52.144;5.430;2022-11-30T17:22:41;8.50;99.90
44190;DHT22;29856;52.144;5.430;2022-11-30T17:25:12;8.40;99.90
44190;DHT22;29856;52.144;5.430;2022-11-30T17:27:38;8.50;99.90
44190;DHT22;29856;52.144;5.430;2022-11-30T17:30:04;8.50;99.90
44190;DHT22;29856;52.144;5.430;2022-11-30T17:32:30;8.60;99.90
44190;DHT22;29856;52.144;5.430;2022-11-30T17:34:55;8.60;99.90
44190;DHT22;29856;52.144;5.430;2022-11-30T17:37:20;8.60;99.90
44190;DHT22;29856;52.144;5.430;2022-11-30T17:39:46;8.60;99.90
44190;DHT22;29856;52.144;5.430;2022-11-30T17:42:11;8.60;99.90
44190;DHT22;29856;52.144;5.430;2022-11-30T17:44:37;8.70;99.90
44190;DHT22;29856;52.144;5.430;2022-11-30T17:47:02;8.80;99.90
44190;DHT22;29856;52.144;5.430;2022-11-30T17:49:28;8.60;99.90
44190;DHT22;29856;52.144;5.430;2022-11-30T17:51:53;8.60;99.90
44190;DHT22;29856;52.144;5.430;2022-11-30T17:54:18;8.50;99.90
44190;DHT22;29856;52.144;5.430;2022-11-30T17:56:44;8.60;99.90
44190;DHT22;29856;52.144;5.430;2022-11-30T17:59:09;8.60;99.90
44190;DHT22;29856;52.144;5.430;2022-11-30T18:01:35;8.50;99.90
44190;DHT22;29856;52.144;5.430;2022-11-30T18:04:00;8.40;99.90